Flight Track Log - Related Links

Times and Time Zones

All times are in EDT time to prevent confusion due to time zone crossing. See the UAL1049 flight status page for this flight to view local times or setup timezone preferences in your user account.

Time Position Orientation Groundspeed Altitude Reporting Facility
EDT Latitude Longitude Course Direction KTS MPH feet Rate Location/Type
Sun 08:47:54 PM 40.6636 -74.1789 43° Northeast 171 197 1,300  Level Boston Center
Sun 08:48:55 PM 40.6439 -74.2339 245° Southwest 208 239 4,500 2,311 Climbing Boston Center
Sun 08:49:56 PM 40.7156 -74.2103 14° North 266 306 6,000 1,597 Climbing Boston Center
Sun 08:50:00 PM 40.8623 -73.8617 47° Northeast  Level Estimated
Sun 08:50:59 PM 40.7842 -74.1631 28° Northeast 277 319 7,800  Level Boston Center
Sun 08:51:00 PM 40.9187 -73.7591 51° Northeast  Level Estimated
Sun 08:52:00 PM 40.9750 -73.6562 37° Northeast  Level Estimated
Sun 08:52:00 PM 40.8386 -74.0833 48° Northeast 297 342 10,000  Level Boston Center
Sun 08:53:00 PM 41.0313 -73.5532 43° Northeast  Level Estimated
Sun 08:53:01 PM 40.8933 -73.9914 52° Northeast 317 365 11,100  Level Boston Center
Sun 08:54:01 PM 40.9489 -73.8942 53° Northeast 330 380 14,800 2,950 Climbing Boston Center
Sun 08:55:01 PM 41.0172 -73.7758 53° Northeast 353 406 17,000 2,033 Climbing Boston Center
Sun 08:56:02 PM 41.0617 -73.6439 66° East 392 451 18,900 992 Climbing Boston Center
Sun 08:57:02 PM 41.1022 -73.5083 68° East 398 458 19,000 919 Climbing Boston Center
Sun 08:58:06 PM 41.1381 -73.3883 68° East 401 461 20,800 968 Climbing Boston Center
Sun 08:59:06 PM 41.1833 -73.2406 68° East 409 471 21,000 99 Climbing Boston Center
Sun 09:00:07 PM 41.2236 -73.0983 69° East 413 475 21,000  Level Boston Center
Sun 09:01:08 PM 41.2664 -72.9553 68° East 418 481 21,000 -49 Level Boston Center
Sun 09:02:09 PM 41.3078 -72.8150 69° East 416 479 20,900  Descending Boston Center
Sun 09:03:10 PM 41.3567 -72.6444 69° East 411 473 21,000 49 Climbing Boston Center
Sun 09:04:11 PM 41.3983 -72.5008 69° East 413 475 21,000 -295 Level Boston Center
Sun 09:05:12 PM 41.4389 -72.3569 69° East 414 476 20,400 -756 Descending Boston Center
Sun 09:06:10 PM 41.4786 -72.2114 70° East 417 480 19,500 -1,000 Descending Boston Center
Sun 09:07:12 PM 41.5336 -72.0644 63° Northeast 418 481 18,400 -871 Descending Boston Center
Sun 09:08:14 PM 41.5789 -71.9272 66° East 407 468 17,700 -1,317 Descending Boston Center
Sun 09:09:15 PM 41.6197 -71.7889 68° East 401 461 15,700 -2,182 Descending Boston Center
Sun 09:10:15 PM 41.6569 -71.6586 69° East 379 436 13,300 -2,100 Descending Boston Center
Sun 09:11:15 PM 41.6956 -71.5256 69° East 366 421 11,500 -1,122 Descending Boston Center
Sun 09:12:18 PM 41.7322 -71.4219 65° Northeast 313 360 11,000 -242 Descending Boston Center
Sun 09:13:19 PM 41.7936 -71.3481 42° Northeast 298 343 11,000  Level Boston Center
Sun 09:14:18 PM 41.8522 -71.2761 42° Northeast 289 333 11,000 -843 Level Boston Center
Sun 09:15:20 PM 41.9239 -71.2194 30° Northeast 285 328 9,300 -1,770 Descending Boston Center
Sun 09:16:20 PM 41.9986 -71.1822 20° North 287 330 7,400 -1,721 Descending Boston Center
Sun 09:17:22 PM 42.0731 -71.1478 19° North 284 327 5,800 -1,500 Descending Boston Center
Sun 09:17:56 PM 42.1167 -71.1167 28° Northeast 257 296 5,000 -1,340 Descending KA90
Sun 09:18:56 PM 42.1833 -71.1000 10° North 221 254 3,700 -1,140 Descending KA90
Sun 09:19:57 PM 42.2333 -71.0667 26° Northeast 176 203 2,700 -893 Descending KA90
Sun 09:20:57 PM 42.2667 -71.0500 20° North 148 170 1,900 -800 Descending KA90
Sun 09:21:57 PM 42.3000 -71.0333 20° North 140 161 1,100 -800 Descending KA90
Sun 09:22:57 PM 42.3333 -71.0167 20° North 140 161 300 -800 Descending KA90

Login

Don't have an account? Register now (free) for customized features, flight alerts, and more!